To NAV CANADA Home Page Login to a new session Search on AWWS site Disclaimer Vers la page française équivalente Tips FAQ What's new on the site To the Forecasts and Observations / NOTAM section To "File a Flight Plan" website Publications and other links Update of the User's profile FIC Telephone Numbers My Weather Data Folder Route Weather Data Regional Weather Data Local Weather Data To the Forecasts and Observations / NOTAM section
Request Generated 05/30/2020 at 19:16:09 UTC . Weather information available at that time is displayed.

METAR/TAF

If you find any discrepancies between the coded METAR/TAF and the plain language METAR/TAF please use the coded METAR/TAF. LWIS bulletins are not decoded in plain language.

CALGARY/YYC CALGARY INTL/AB    

METAR CYYC 301900Z 19020G28KT 35SM FEW060 SCT250 24/09 A2994 RMK CU1CI4 CU TR S 136 DENSITY ALT 5500FT=
METAR
LOCATION
CYYC - CALGARY/YYC CALGARY INTL/AB
DATE - TIME
30 MAY 2020 - 1900 UTC
WIND
190 TRUE @ 20  KNOTS
GUSTS
28 KNOTS
VISIBILITY
35 STAT.  MILES
RUNWAY VISUAL RANGE
WEATHER
CLOUDINESS
FEW CLOUDS (1/8 - 2/8) 6000  FT
SCATTERED CLOUDS (3/8 - 4/8) 25000  FT
TEMP / DEWPOINT
24 C / 9 C
ALTIMETER
29.94 IN HG
RECENT WEATHER
WIND SHEAR

METAR CYYC 301800Z 16017G22KT 35SM FEW055 FEW240 SCT300 22/10 A2997 RMK CU1CI1C CU TR SLP147 DENSITY ALT 5300FT=
METAR
LOCATION
CYYC - CALGARY/YYC CALGARY INTL/AB
DATE - TIME
30 MAY 2020 - 1800 UTC
WIND
160 TRUE @ 17  KNOTS
GUSTS
22 KNOTS
VISIBILITY
35 STAT.  MILES
RUNWAY VISUAL RANGE
WEATHER
CLOUDINESS
FEW CLOUDS (1/8 - 2/8) 5500  FT
FEW CLOUDS (1/8 - 2/8) 24000  FT
SCATTERED CLOUDS (3/8 - 4/8) 30000  FT
TEMP / DEWPOINT
22 C / 10 C
ALTIMETER
29.97 IN HG
RECENT WEATHER
WIND SHEAR

METAR CYYC 301700Z 16009KT 30SM FEW090 FEW250 19/09 A2999 RMK AC1CI1 CI TR DIST U TR SW-W SLP158 DENSITY ALT 4800FT=
METAR
LOCATION
CYYC - CALGARY/YYC CALGARY INTL/AB
DATE - TIME
30 MAY 2020 - 1700 UTC
WIND
160 TRUE @ 9  KNOTS
VISIBILITY
30 STAT.  MILES
RUNWAY VISUAL RANGE
WEATHER
CLOUDINESS
FEW CLOUDS (1/8 - 2/8) 9000  FT
FEW CLOUDS (1/8 - 2/8) 25000  FT
TEMP / DEWPOINT
19 C / 9 C
ALTIMETER
29.99 IN HG
RECENT WEATHER
WIND SHEAR

TAF CYYC 301738Z 3018/3118 16008KT P6SM FEW090 SCT250 BECMG 3018/3020 15012G22KT FM302200 15012G22KT P6SM FEW080 BKN220 BECMG 3100/3102 14012KT FM310800 13006KT P6SM FEW050 SCT140 BECMG 3116/3118 18006KT RMK NXT FCST BY 302100Z=
TAF
LOCATION

CYYC - CALGARY/YYC CALGARY INTL/AB
VALIDITY [UTC]
30 MAY - 1738 to
31 MAY - 1800
 
TIMES
[UTC]
WIND
[DEGREES TRUE]
VISIBILITY
[STAT. MILES]
WEATHER
CLOUDINESS
[FEET AGL]
 
30 MAY - 1800 to
30 MAY - 2200
160 @ 8 KNOTS
6+
NIL
9000 FEW
25000 SCATTERED
BECOMING
30 MAY - 1800 to
30 MAY - 2000
150 @ 12 KNOTS
GUSTS 22 KNOTS
 
 
 
 
30 MAY - 2200 to
31 MAY - 0800
150 @ 12 KNOTS
GUSTS 22 KNOTS
6+
NIL
8000 FEW
22000 BROKEN
BECOMING
31 MAY - 0000 to
31 MAY - 0200
140 @ 12 KNOTS
 
 
 
 
31 MAY - 0800 to
31 MAY - 1800
130 @ 6 KNOTS
6+
NIL
5000 FEW
14000 SCATTERED
BECOMING
31 MAY - 1600 to
31 MAY - 1800
180 @ 6 KNOTS
 
 
 
REMARKS
THE NEXT FORECAST WILL BE ISSUED BY 2100 UTC ON DAY 30


Your time UTC time
Weather data provided by Environment Canada and NAV CANADA